sensor_id;sensor_type;location;lat;lon;timestamp;P1;durP1;ratioP1;P2;durP2;ratioP2
66585;SDS011;53444;45.822;16.092;2023-02-01T00:02:44;19.10;;;10.13;;
66585;SDS011;53444;45.822;16.092;2023-02-01T00:05:10;17.38;;;9.00;;
66585;SDS011;53444;45.822;16.092;2023-02-01T00:07:37;16.30;;;8.53;;
66585;SDS011;53444;45.822;16.092;2023-02-01T00:10:04;14.70;;;8.05;;
66585;SDS011;53444;45.822;16.092;2023-02-01T00:12:32;17.42;;;8.40;;
66585;SDS011;53444;45.822;16.092;2023-02-01T00:15:00;19.45;;;8.68;;
66585;SDS011;53444;45.822;16.092;2023-02-01T00:17:27;18.58;;;8.88;;
66585;SDS011;53444;45.822;16.092;2023-02-01T00:19:53;20.60;;;9.03;;
66585;SDS011;53444;45.822;16.092;2023-02-01T00:22:20;20.42;;;9.48;;
66585;SDS011;53444;45.822;16.092;2023-02-01T00:24:47;21.98;;;9.23;;
66585;SDS011;53444;45.822;16.092;2023-02-01T00:27:13;17.38;;;8.65;;
66585;SDS011;53444;45.822;16.092;2023-02-01T00:29:43;18.13;;;9.15;;
66585;SDS011;53444;45.822;16.092;2023-02-01T00:32:12;22.03;;;9.67;;
66585;SDS011;53444;45.822;16.092;2023-02-01T00:34:38;19.10;;;9.98;;
66585;SDS011;53444;45.822;16.092;2023-02-01T00:37:05;19.77;;;9.13;;
66585;SDS011;53444;45.822;16.092;2023-02-01T00:39:32;17.98;;;9.40;;
66585;SDS011;53444;45.822;16.092;2023-02-01T00:41:59;23.80;;;9.88;;
66585;SDS011;53444;45.822;16.092;2023-02-01T00:44:27;19.90;;;9.73;;
66585;SDS011;53444;45.822;16.092;2023-02-01T00:46:58;20.17;;;8.90;;
66585;SDS011;53444;45.822;16.092;2023-02-01T00:49:26;18.35;;;9.68;;
66585;SDS011;53444;45.822;16.092;2023-02-01T00:51:53;22.38;;;10.98;;
66585;SDS011;53444;45.822;16.092;2023-02-01T00:54:20;24.00;;;10.48;;
66585;SDS011;53444;45.822;16.092;2023-02-01T00:56:46;20.60;;;8.70;;
66585;SDS011;53444;45.822;16.092;2023-02-01T00:59:13;20.73;;;9.10;;
66585;SDS011;53444;45.822;16.092;2023-02-01T01:01:40;15.73;;;8.65;;
66585;SDS011;53444;45.822;16.092;2023-02-01T01:04:06;21.10;;;9.30;;
66585;SDS011;53444;45.822;16.092;2023-02-01T01:06:34;19.40;;;9.13;;
66585;SDS011;53444;45.822;16.092;2023-02-01T01:09:03;20.57;;;8.97;;
66585;SDS011;53444;45.822;16.092;2023-02-01T01:11:32;19.70;;;8.95;;
66585;SDS011;53444;45.822;16.092;2023-02-01T01:14:01;21.23;;;9.73;;
66585;SDS011;53444;45.822;16.092;2023-02-01T01:16:28;18.48;;;9.18;;
66585;SDS011;53444;45.822;16.092;2023-02-01T01:18:56;24.73;;;10.75;;
66585;SDS011;53444;45.822;16.092;2023-02-01T01:21:23;23.83;;;9.60;;
66585;SDS011;53444;45.822;16.092;2023-02-01T01:23:51;18.08;;;9.38;;
66585;SDS011;53444;45.822;16.092;2023-02-01T01:26:18;22.10;;;10.25;;
66585;SDS011;53444;45.822;16.092;2023-02-01T01:28:47;19.92;;;10.52;;
66585;SDS011;53444;45.822;16.092;2023-02-01T01:31:15;23.30;;;10.48;;
66585;SDS011;53444;45.822;16.092;2023-02-01T01:33:43;25.57;;;10.43;;
66585;SDS011;53444;45.822;16.092;2023-02-01T01:36:10;21.40;;;10.27;;
66585;SDS011;53444;45.822;16.092;2023-02-01T01:38:38;23.30;;;9.95;;
66585;SDS011;53444;45.822;16.092;2023-02-01T01:41:06;23.23;;;10.60;;
66585;SDS011;53444;45.822;16.092;2023-02-01T01:43:46;19.77;;;10.25;;
66585;SDS011;53444;45.822;16.092;2023-02-01T01:46:15;26.30;;;11.47;;
66585;SDS011;53444;45.822;16.092;2023-02-01T01:48:43;23.17;;;10.60;;
66585;SDS011;53444;45.822;16.092;2023-02-01T01:51:10;37.58;;;14.95;;
66585;SDS011;53444;45.822;16.092;2023-02-01T01:53:41;35.20;;;14.38;;
66585;SDS011;53444;45.822;16.092;2023-02-01T01:56:12;25.75;;;12.05;;
66585;SDS011;53444;45.822;16.092;2023-02-01T01:58:39;26.27;;;11.90;;
66585;SDS011;53444;45.822;16.092;2023-02-01T02:01:06;29.02;;;13.07;;
66585;SDS011;53444;45.822;16.092;2023-02-01T02:03:34;26.92;;;12.20;;
66585;SDS011;53444;45.822;16.092;2023-02-01T02:06:05;32.83;;;11.65;;
66585;SDS011;53444;45.822;16.092;2023-02-01T02:08:38;26.75;;;11.20;;
66585;SDS011;53444;45.822;16.092;2023-02-01T02:11:05;23.10;;;11.17;;
66585;SDS011;53444;45.822;16.092;2023-02-01T02:13:33;26.17;;;11.05;;
66585;SDS011;53444;45.822;16.092;2023-02-01T02:16:05;28.48;;;13.27;;
66585;SDS011;53444;45.822;16.092;2023-02-01T02:18:54;32.08;;;11.48;;
66585;SDS011;53444;45.822;16.092;2023-02-01T02:21:35;24.90;;;11.02;;
66585;SDS011;53444;45.822;16.092;2023-02-01T02:27:19;22.45;;;10.82;;
66585;SDS011;53444;45.822;16.092;2023-02-01T02:35:59;25.75;;;10.95;;
66585;SDS011;53444;45.822;16.092;2023-02-01T02:38:33;23.80;;;11.43;;
66585;SDS011;53444;45.822;16.092;2023-02-01T02:41:10;27.27;;;10.50;;
66585;SDS011;53444;45.822;16.092;2023-02-01T02:44:04;28.35;;;10.52;;
66585;SDS011;53444;45.822;16.092;2023-02-01T02:46:57;19.58;;;9.13;;
66585;SDS011;53444;45.822;16.092;2023-02-01T02:49:49;19.52;;;8.68;;
66585;SDS011;53444;45.822;16.092;2023-02-01T02:52:42;21.00;;;9.47;;
66585;SDS011;53444;45.822;16.092;2023-02-01T02:55:32;24.08;;;10.10;;
66585;SDS011;53444;45.822;16.092;2023-02-01T02:58:01;20.95;;;9.98;;
66585;SDS011;53444;45.822;16.092;2023-02-01T03:00:47;22.90;;;9.35;;
66585;SDS011;53444;45.822;16.092;2023-02-01T03:03:35;21.30;;;9.95;;
66585;SDS011;53444;45.822;16.092;2023-02-01T03:06:22;21.90;;;9.23;;
66585;SDS011;53444;45.822;16.092;2023-02-01T03:08:51;28.17;;;12.38;;
66585;SDS011;53444;45.822;16.092;2023-02-01T03:11:19;24.10;;;10.60;;
66585;SDS011;53444;45.822;16.092;2023-02-01T03:13:48;25.05;;;10.32;;
66585;SDS011;53444;45.822;16.092;2023-02-01T03:16:18;26.13;;;11.73;;
66585;SDS011;53444;45.822;16.092;2023-02-01T03:18:52;21.20;;;10.30;;
66585;SDS011;53444;45.822;16.092;2023-02-01T03:21:23;20.15;;;9.90;;
66585;SDS011;53444;45.822;16.092;2023-02-01T03:23:55;21.25;;;9.95;;
66585;SDS011;53444;45.822;16.092;2023-02-01T03:26:27;23.95;;;11.10;;
66585;SDS011;53444;45.822;16.092;2023-02-01T03:28:57;21.70;;;10.07;;
66585;SDS011;53444;45.822;16.092;2023-02-01T03:31:31;23.80;;;10.80;;
66585;SDS011;53444;45.822;16.092;2023-02-01T03:33:58;23.23;;;10.43;;
66585;SDS011;53444;45.822;16.092;2023-02-01T03:36:25;28.08;;;11.55;;
66585;SDS011;53444;45.822;16.092;2023-02-01T03:38:58;22.88;;;11.05;;
66585;SDS011;53444;45.822;16.092;2023-02-01T03:41:33;22.85;;;11.02;;
66585;SDS011;53444;45.822;16.092;2023-02-01T03:44:04;24.77;;;11.23;;
66585;SDS011;53444;45.822;16.092;2023-02-01T03:46:37;22.30;;;11.10;;
66585;SDS011;53444;45.822;16.092;2023-02-01T03:49:08;27.10;;;12.32;;
66585;SDS011;53444;45.822;16.092;2023-02-01T03:51:37;22.30;;;10.65;;
66585;SDS011;53444;45.822;16.092;2023-02-01T03:54:09;22.70;;;11.50;;
66585;SDS011;53444;45.822;16.092;2023-02-01T03:56:38;22.37;;;10.70;;
66585;SDS011;53444;45.822;16.092;2023-02-01T03:59:09;25.45;;;11.57;;
66585;SDS011;53444;45.822;16.092;2023-02-01T04:01:36;20.50;;;9.85;;
66585;SDS011;53444;45.822;16.092;2023-02-01T04:04:02;24.13;;;10.85;;
66585;SDS011;53444;45.822;16.092;2023-02-01T04:06:29;25.65;;;11.02;;
66585;SDS011;53444;45.822;16.092;2023-02-01T04:08:56;25.77;;;12.20;;
66585;SDS011;53444;45.822;16.092;2023-02-01T04:11:24;23.48;;;11.43;;
66585;SDS011;53444;45.822;16.092;2023-02-01T04:13:52;25.80;;;11.18;;
66585;SDS011;53444;45.822;16.092;2023-02-01T04:16:19;23.92;;;10.60;;
66585;SDS011;53444;45.822;16.092;2023-02-01T04:18:45;25.10;;;10.48;;
66585;SDS011;53444;45.822;16.092;2023-02-01T04:21:12;21.13;;;10.10;;
66585;SDS011;53444;45.822;16.092;2023-02-01T04:23:38;26.35;;;11.07;;
66585;SDS011;53444;45.822;16.092;2023-02-01T04:26:05;33.90;;;11.38;;
66585;SDS011;53444;45.822;16.092;2023-02-01T04:28:33;24.75;;;11.27;;
66585;SDS011;53444;45.822;16.092;2023-02-01T04:30:59;28.98;;;11.90;;
66585;SDS011;53444;45.822;16.092;2023-02-01T04:33:26;27.90;;;11.57;;
66585;SDS011;53444;45.822;16.092;2023-02-01T04:35:52;26.27;;;11.40;;
66585;SDS011;53444;45.822;16.092;2023-02-01T04:38:19;24.95;;;11.50;;
66585;SDS011;53444;45.822;16.092;2023-02-01T04:40:46;28.35;;;11.85;;
66585;SDS011;53444;45.822;16.092;2023-02-01T04:43:14;24.33;;;10.88;;
66585;SDS011;53444;45.822;16.092;2023-02-01T04:45:42;24.40;;;10.97;;
66585;SDS011;53444;45.822;16.092;2023-02-01T04:48:12;27.17;;;10.90;;
66585;SDS011;53444;45.822;16.092;2023-02-01T04:50:39;29.48;;;11.63;;
66585;SDS011;53444;45.822;16.092;2023-02-01T04:53:09;26.70;;;12.25;;
66585;SDS011;53444;45.822;16.092;2023-02-01T04:55:36;25.63;;;11.43;;
66585;SDS011;53444;45.822;16.092;2023-02-01T04:58:03;24.43;;;11.17;;
66585;SDS011;53444;45.822;16.092;2023-02-01T05:00:29;26.13;;;12.18;;
66585;SDS011;53444;45.822;16.092;2023-02-01T05:02:57;27.70;;;12.20;;
66585;SDS011;53444;45.822;16.092;2023-02-01T05:05:24;26.23;;;10.77;;
66585;SDS011;53444;45.822;16.092;2023-02-01T05:07:51;26.17;;;12.27;;
66585;SDS011;53444;45.822;16.092;2023-02-01T05:10:18;25.90;;;12.17;;
66585;SDS011;53444;45.822;16.092;2023-02-01T05:12:45;25.25;;;12.15;;
66585;SDS011;53444;45.822;16.092;2023-02-01T05:15:29;25.23;;;11.00;;
66585;SDS011;53444;45.822;16.092;2023-02-01T05:17:57;26.77;;;12.52;;
66585;SDS011;53444;45.822;16.092;2023-02-01T05:20:24;27.10;;;11.80;;
66585;SDS011;53444;45.822;16.092;2023-02-01T05:22:51;30.70;;;12.93;;
66585;SDS011;53444;45.822;16.092;2023-02-01T05:25:17;26.08;;;11.43;;
66585;SDS011;53444;45.822;16.092;2023-02-01T05:27:45;26.05;;;12.10;;
66585;SDS011;53444;45.822;16.092;2023-02-01T05:30:12;29.05;;;13.80;;
66585;SDS011;53444;45.822;16.092;2023-02-01T05:32:40;39.15;;;14.00;;
66585;SDS011;53444;45.822;16.092;2023-02-01T05:35:08;28.03;;;12.93;;
66585;SDS011;53444;45.822;16.092;2023-02-01T05:37:35;27.88;;;12.02;;
66585;SDS011;53444;45.822;16.092;2023-02-01T05:40:02;27.48;;;12.70;;
66585;SDS011;53444;45.822;16.092;2023-02-01T05:42:29;30.73;;;13.13;;
66585;SDS011;53444;45.822;16.092;2023-02-01T05:44:55;29.17;;;13.07;;
66585;SDS011;53444;45.822;16.092;2023-02-01T05:47:22;28.13;;;12.53;;
66585;SDS011;53444;45.822;16.092;2023-02-01T05:49:49;26.42;;;13.25;;
66585;SDS011;53444;45.822;16.092;2023-02-01T05:52:17;33.22;;;12.52;;
66585;SDS011;53444;45.822;16.092;2023-02-01T05:54:44;26.65;;;12.70;;
66585;SDS011;53444;45.822;16.092;2023-02-01T05:57:12;26.05;;;12.13;;
66585;SDS011;53444;45.822;16.092;2023-02-01T05:59:39;28.37;;;12.13;;
66585;SDS011;53444;45.822;16.092;2023-02-01T06:02:09;25.77;;;12.73;;
66585;SDS011;53444;45.822;16.092;2023-02-01T06:04:38;27.33;;;13.02;;
66585;SDS011;53444;45.822;16.092;2023-02-01T06:07:05;37.05;;;14.82;;
66585;SDS011;53444;45.822;16.092;2023-02-01T06:09:34;40.75;;;14.80;;
66585;SDS011;53444;45.822;16.092;2023-02-01T06:12:01;35.97;;;16.80;;
66585;SDS011;53444;45.822;16.092;2023-02-01T06:14:28;39.63;;;18.90;;
66585;SDS011;53444;45.822;16.092;2023-02-01T06:16:55;40.50;;;17.40;;
66585;SDS011;53444;45.822;16.092;2023-02-01T06:19:22;37.85;;;16.55;;
66585;SDS011;53444;45.822;16.092;2023-02-01T06:21:52;30.38;;;14.50;;
66585;SDS011;53444;45.822;16.092;2023-02-01T06:24:20;24.30;;;13.03;;
66585;SDS011;53444;45.822;16.092;2023-02-01T06:26:48;35.22;;;15.20;;
66585;SDS011;53444;45.822;16.092;2023-02-01T06:29:14;45.10;;;17.55;;
66585;SDS011;53444;45.822;16.092;2023-02-01T06:31:41;36.55;;;17.70;;
66585;SDS011;53444;45.822;16.092;2023-02-01T06:34:08;39.20;;;17.13;;
66585;SDS011;53444;45.822;16.092;2023-02-01T06:36:35;51.70;;;18.63;;
66585;SDS011;53444;45.822;16.092;2023-02-01T06:39:02;42.20;;;18.73;;
66585;SDS011;53444;45.822;16.092;2023-02-01T06:41:29;45.88;;;17.58;;
66585;SDS011;53444;45.822;16.092;2023-02-01T06:43:57;37.28;;;16.48;;
66585;SDS011;53444;45.822;16.092;2023-02-01T06:46:24;37.97;;;18.08;;
66585;SDS011;53444;45.822;16.092;2023-02-01T06:48:50;40.73;;;20.67;;
66585;SDS011;53444;45.822;16.092;2023-02-01T06:51:21;45.35;;;18.50;;
66585;SDS011;53444;45.822;16.092;2023-02-01T06:53:50;42.47;;;20.83;;
66585;SDS011;53444;45.822;16.092;2023-02-01T06:56:17;49.13;;;20.40;;
66585;SDS011;53444;45.822;16.092;2023-02-01T06:58:43;56.03;;;21.48;;
66585;SDS011;53444;45.822;16.092;2023-02-01T07:01:12;49.20;;;19.60;;
66585;SDS011;53444;45.822;16.092;2023-02-01T07:03:39;42.97;;;19.45;;
66585;SDS011;53444;45.822;16.092;2023-02-01T07:06:06;35.90;;;16.98;;
66585;SDS011;53444;45.822;16.092;2023-02-01T07:08:35;39.60;;;17.13;;
66585;SDS011;53444;45.822;16.092;2023-02-01T07:11:03;46.97;;;19.83;;
66585;SDS011;53444;45.822;16.092;2023-02-01T07:13:30;54.33;;;24.80;;
66585;SDS011;53444;45.822;16.092;2023-02-01T07:15:57;45.60;;;21.73;;
66585;SDS011;53444;45.822;16.092;2023-02-01T07:18:27;45.08;;;22.35;;
66585;SDS011;53444;45.822;16.092;2023-02-01T07:20:54;53.97;;;22.52;;
66585;SDS011;53444;45.822;16.092;2023-02-01T07:23:21;49.33;;;20.60;;
66585;SDS011;53444;45.822;16.092;2023-02-01T07:25:48;43.60;;;19.90;;
66585;SDS011;53444;45.822;16.092;2023-02-01T07:28:18;39.22;;;18.67;;
66585;SDS011;53444;45.822;16.092;2023-02-01T07:30:45;42.38;;;20.23;;
66585;SDS011;53444;45.822;16.092;2023-02-01T07:33:15;45.13;;;20.40;;
66585;SDS011;53444;45.822;16.092;2023-02-01T07:35:46;44.15;;;18.35;;
66585;SDS011;53444;45.822;16.092;2023-02-01T07:38:13;49.03;;;20.77;;
66585;SDS011;53444;45.822;16.092;2023-02-01T07:40:39;45.47;;;19.17;;
66585;SDS011;53444;45.822;16.092;2023-02-01T07:43:07;42.83;;;20.40;;
66585;SDS011;53444;45.822;16.092;2023-02-01T07:45:34;40.35;;;18.45;;
66585;SDS011;53444;45.822;16.092;2023-02-01T07:48:00;39.97;;;17.80;;
66585;SDS011;53444;45.822;16.092;2023-02-01T07:50:28;38.07;;;17.50;;
66585;SDS011;53444;45.822;16.092;2023-02-01T07:52:56;31.15;;;15.55;;
66585;SDS011;53444;45.822;16.092;2023-02-01T07:55:24;43.30;;;18.02;;
66585;SDS011;53444;45.822;16.092;2023-02-01T07:57:51;36.03;;;15.32;;
66585;SDS011;53444;45.822;16.092;2023-02-01T08:00:18;36.45;;;17.55;;
66585;SDS011;53444;45.822;16.092;2023-02-01T08:03:03;42.87;;;18.97;;
66585;SDS011;53444;45.822;16.092;2023-02-01T08:05:30;35.83;;;16.63;;
66585;SDS011;53444;45.822;16.092;2023-02-01T08:07:58;39.92;;;16.48;;
66585;SDS011;53444;45.822;16.092;2023-02-01T08:10:25;34.92;;;16.33;;
66585;SDS011;53444;45.822;16.092;2023-02-01T08:12:52;40.45;;;15.95;;
66585;SDS011;53444;45.822;16.092;2023-02-01T08:15:25;37.80;;;16.40;;
66585;SDS011;53444;45.822;16.092;2023-02-01T08:17:51;34.60;;;14.57;;
66585;SDS011;53444;45.822;16.092;2023-02-01T08:20:19;27.10;;;13.93;;
66585;SDS011;53444;45.822;16.092;2023-02-01T08:22:46;28.33;;;12.77;;
66585;SDS011;53444;45.822;16.092;2023-02-01T08:25:14;28.10;;;13.98;;
66585;SDS011;53444;45.822;16.092;2023-02-01T08:27:42;41.53;;;16.67;;
66585;SDS011;53444;45.822;16.092;2023-02-01T08:30:11;43.15;;;15.98;;
66585;SDS011;53444;45.822;16.092;2023-02-01T08:32:38;34.22;;;14.02;;
66585;SDS011;53444;45.822;16.092;2023-02-01T08:35:04;30.65;;;13.57;;
66585;SDS011;53444;45.822;16.092;2023-02-01T08:37:32;23.00;;;10.60;;
66585;SDS011;53444;45.822;16.092;2023-02-01T08:39:58;26.73;;;10.97;;
66585;SDS011;53444;45.822;16.092;2023-02-01T08:42:26;24.73;;;10.63;;
66585;SDS011;53444;45.822;16.092;2023-02-01T08:45:11;22.02;;;8.13;;
66585;SDS011;53444;45.822;16.092;2023-02-01T08:47:37;18.90;;;4.43;;
66585;SDS011;53444;45.822;16.092;2023-02-01T08:50:04;12.90;;;6.78;;
66585;SDS011;53444;45.822;16.092;2023-02-01T08:52:32;19.80;;;7.27;;
66585;SDS011;53444;45.822;16.092;2023-02-01T08:54:58;15.98;;;7.18;;
66585;SDS011;53444;45.822;16.092;2023-02-01T08:57:26;26.77;;;6.47;;
66585;SDS011;53444;45.822;16.092;2023-02-01T08:59:53;13.70;;;6.75;;
66585;SDS011;53444;45.822;16.092;2023-02-01T09:02:19;15.52;;;6.75;;
66585;SDS011;53444;45.822;16.092;2023-02-01T09:04:46;14.47;;;6.17;;
66585;SDS011;53444;45.822;16.092;2023-02-01T09:07:13;14.63;;;7.20;;
66585;SDS011;53444;45.822;16.092;2023-02-01T09:09:39;15.85;;;7.35;;
66585;SDS011;53444;45.822;16.092;2023-02-01T09:12:07;15.48;;;6.70;;
66585;SDS011;53444;45.822;16.092;2023-02-01T09:14:35;18.05;;;8.20;;
66585;SDS011;53444;45.822;16.092;2023-02-01T09:17:02;18.43;;;7.90;;
66585;SDS011;53444;45.822;16.092;2023-02-01T09:19:30;17.98;;;7.45;;
66585;SDS011;53444;45.822;16.092;2023-02-01T09:21:57;20.90;;;8.32;;
66585;SDS011;53444;45.822;16.092;2023-02-01T09:24:23;23.73;;;9.10;;
66585;SDS011;53444;45.822;16.092;2023-02-01T09:26:50;19.40;;;10.02;;
66585;SDS011;53444;45.822;16.092;2023-02-01T09:29:17;23.37;;;12.07;;
66585;SDS011;53444;45.822;16.092;2023-02-01T09:31:45;20.55;;;10.10;;
66585;SDS011;53444;45.822;16.092;2023-02-01T09:34:12;22.60;;;9.73;;
66585;SDS011;53444;45.822;16.092;2023-02-01T09:36:39;20.17;;;9.93;;
66585;SDS011;53444;45.822;16.092;2023-02-01T09:39:05;21.17;;;9.25;;
66585;SDS011;53444;45.822;16.092;2023-02-01T09:41:35;25.23;;;10.17;;
66585;SDS011;53444;45.822;16.092;2023-02-01T09:44:13;18.58;;;8.07;;
66585;SDS011;53444;45.822;16.092;2023-02-01T09:46:49;21.83;;;10.60;;
66585;SDS011;53444;45.822;16.092;2023-02-01T09:49:22;21.38;;;9.60;;
66585;SDS011;53444;45.822;16.092;2023-02-01T09:51:54;24.58;;;9.93;;
66585;SDS011;53444;45.822;16.092;2023-02-01T09:54:22;22.13;;;8.90;;
66585;SDS011;53444;45.822;16.092;2023-02-01T09:56:51;21.60;;;9.27;;
66585;SDS011;53444;45.822;16.092;2023-02-01T09:59:25;21.38;;;9.82;;
66585;SDS011;53444;45.822;16.092;2023-02-01T10:01:59;14.82;;;7.30;;
66585;SDS011;53444;45.822;16.092;2023-02-01T10:04:29;18.17;;;8.40;;
66585;SDS011;53444;45.822;16.092;2023-02-01T10:07:02;15.10;;;8.13;;
66585;SDS011;53444;45.822;16.092;2023-02-01T10:09:42;25.50;;;8.55;;
66585;SDS011;53444;45.822;16.092;2023-02-01T10:12:22;18.15;;;8.38;;
66585;SDS011;53444;45.822;16.092;2023-02-01T10:15:13;21.67;;;8.85;;
66585;SDS011;53444;45.822;16.092;2023-02-01T10:17:51;20.33;;;9.63;;
66585;SDS011;53444;45.822;16.092;2023-02-01T10:20:26;18.33;;;8.23;;
66585;SDS011;53444;45.822;16.092;2023-02-01T10:23:00;21.05;;;8.65;;
66585;SDS011;53444;45.822;16.092;2023-02-01T10:25:36;23.92;;;10.30;;
66585;SDS011;53444;45.822;16.092;2023-02-01T10:28:08;21.63;;;8.88;;
66585;SDS011;53444;45.822;16.092;2023-02-01T10:30:41;24.20;;;10.70;;
66585;SDS011;53444;45.822;16.092;2023-02-01T10:33:14;16.87;;;8.87;;
66585;SDS011;53444;45.822;16.092;2023-02-01T10:35:44;18.48;;;8.95;;
66585;SDS011;53444;45.822;16.092;2023-02-01T10:38:15;18.90;;;7.97;;
66585;SDS011;53444;45.822;16.092;2023-02-01T10:40:50;14.90;;;7.40;;
66585;SDS011;53444;45.822;16.092;2023-02-01T10:43:18;16.83;;;6.88;;
66585;SDS011;53444;45.822;16.092;2023-02-01T10:45:46;20.10;;;8.37;;
66585;SDS011;53444;45.822;16.092;2023-02-01T10:48:12;17.65;;;9.00;;
66585;SDS011;53444;45.822;16.092;2023-02-01T10:50:44;18.95;;;8.48;;
66585;SDS011;53444;45.822;16.092;2023-02-01T10:53:17;17.38;;;7.57;;
66585;SDS011;53444;45.822;16.092;2023-02-01T10:55:48;18.67;;;8.55;;
66585;SDS011;53444;45.822;16.092;2023-02-01T10:58:16;20.85;;;8.43;;
66585;SDS011;53444;45.822;16.092;2023-02-01T11:00:48;21.65;;;8.18;;
66585;SDS011;53444;45.822;16.092;2023-02-01T11:06:18;12.73;;;5.88;;
66585;SDS011;53444;45.822;16.092;2023-02-01T11:08:49;18.95;;;6.45;;
66585;SDS011;53444;45.822;16.092;2023-02-01T11:11:17;10.45;;;5.53;;
66585;SDS011;53444;45.822;16.092;2023-02-01T11:13:45;12.65;;;5.88;;
66585;SDS011;53444;45.822;16.092;2023-02-01T11:16:19;12.60;;;5.93;;
66585;SDS011;53444;45.822;16.092;2023-02-01T11:18:47;13.93;;;6.13;;
66585;SDS011;53444;45.822;16.092;2023-02-01T11:21:19;14.15;;;6.35;;
66585;SDS011;53444;45.822;16.092;2023-02-01T11:23:47;14.23;;;6.22;;
66585;SDS011;53444;45.822;16.092;2023-02-01T11:26:15;16.17;;;6.57;;
66585;SDS011;53444;45.822;16.092;2023-02-01T11:28:51;13.52;;;6.07;;
66585;SDS011;53444;45.822;16.092;2023-02-01T11:31:20;11.93;;;5.40;;
66585;SDS011;53444;45.822;16.092;2023-02-01T11:33:51;13.07;;;5.55;;
66585;SDS011;53444;45.822;16.092;2023-02-01T11:36:21;12.68;;;5.80;;
66585;SDS011;53444;45.822;16.092;2023-02-01T11:38:52;12.30;;;5.63;;
66585;SDS011;53444;45.822;16.092;2023-02-01T11:41:32;10.98;;;4.78;;
66585;SDS011;53444;45.822;16.092;2023-02-01T11:44:01;13.20;;;5.63;;
66585;SDS011;53444;45.822;16.092;2023-02-01T11:46:42;14.38;;;5.00;;
66585;SDS011;53444;45.822;16.092;2023-02-01T11:49:19;10.50;;;4.80;;
66585;SDS011;53444;45.822;16.092;2023-02-01T11:51:49;12.80;;;4.95;;
66585;SDS011;53444;45.822;16.092;2023-02-01T11:54:29;14.77;;;5.80;;
66585;SDS011;53444;45.822;16.092;2023-02-01T11:57:13;13.30;;;5.60;;
66585;SDS011;53444;45.822;16.092;2023-02-01T11:59:55;12.20;;;4.85;;
66585;SDS011;53444;45.822;16.092;2023-02-01T12:02:40;14.85;;;5.55;;
66585;SDS011;53444;45.822;16.092;2023-02-01T12:05:29;11.75;;;5.22;;
66585;SDS011;53444;45.822;16.092;2023-02-01T12:08:06;12.25;;;5.60;;
66585;SDS011;53444;45.822;16.092;2023-02-01T12:10:46;10.77;;;4.82;;
66585;SDS011;53444;45.822;16.092;2023-02-01T12:13:24;10.50;;;4.68;;
66585;SDS011;53444;45.822;16.092;2023-02-01T12:16:02;13.77;;;5.53;;
66585;SDS011;53444;45.822;16.092;2023-02-01T12:19:03;13.77;;;4.55;;
66585;SDS011;53444;45.822;16.092;2023-02-01T12:25:00;13.32;;;5.45;;
66585;SDS011;53444;45.822;16.092;2023-02-01T12:27:46;11.90;;;4.47;;
66585;SDS011;53444;45.822;16.092;2023-02-01T12:30:35;9.13;;;5.20;;
66585;SDS011;53444;45.822;16.092;2023-02-01T12:33:14;13.80;;;6.03;;
66585;SDS011;53444;45.822;16.092;2023-02-01T12:35:52;10.38;;;4.80;;
66585;SDS011;53444;45.822;16.092;2023-02-01T12:41:23;10.80;;;4.43;;
66585;SDS011;53444;45.822;16.092;2023-02-01T12:44:08;13.35;;;5.10;;
66585;SDS011;53444;45.822;16.092;2023-02-01T12:46:43;11.80;;;4.97;;
66585;SDS011;53444;45.822;16.092;2023-02-01T12:49:15;13.40;;;6.90;;
66585;SDS011;53444;45.822;16.092;2023-02-01T12:51:46;13.85;;;6.78;;
66585;SDS011;53444;45.822;16.092;2023-02-01T12:54:18;12.55;;;5.85;;
66585;SDS011;53444;45.822;16.092;2023-02-01T12:56:47;16.35;;;7.32;;
66585;SDS011;53444;45.822;16.092;2023-02-01T12:59:19;13.40;;;6.47;;
66585;SDS011;53444;45.822;16.092;2023-02-01T13:01:53;16.17;;;7.18;;
66585;SDS011;53444;45.822;16.092;2023-02-01T13:04:26;11.82;;;5.82;;
66585;SDS011;53444;45.822;16.092;2023-02-01T13:07:00;11.63;;;4.47;;
66585;SDS011;53444;45.822;16.092;2023-02-01T13:09:34;17.00;;;7.40;;
66585;SDS011;53444;45.822;16.092;2023-02-01T13:12:09;11.98;;;5.20;;
66585;SDS011;53444;45.822;16.092;2023-02-01T13:14:40;11.80;;;6.18;;
66585;SDS011;53444;45.822;16.092;2023-02-01T13:17:12;15.80;;;6.88;;
66585;SDS011;53444;45.822;16.092;2023-02-01T13:19:42;15.82;;;7.60;;
66585;SDS011;53444;45.822;16.092;2023-02-01T13:22:12;12.18;;;6.18;;
66585;SDS011;53444;45.822;16.092;2023-02-01T13:24:45;13.40;;;6.18;;
66585;SDS011;53444;45.822;16.092;2023-02-01T13:27:16;15.10;;;6.45;;
66585;SDS011;53444;45.822;16.092;2023-02-01T13:29:45;15.82;;;6.53;;
66585;SDS011;53444;45.822;16.092;2023-02-01T13:32:24;17.30;;;8.48;;
66585;SDS011;53444;45.822;16.092;2023-02-01T13:35:07;13.10;;;6.38;;
66585;SDS011;53444;45.822;16.092;2023-02-01T13:37:54;11.07;;;5.30;;
66585;SDS011;53444;45.822;16.092;2023-02-01T13:40:41;15.32;;;7.03;;
66585;SDS011;53444;45.822;16.092;2023-02-01T13:43:12;14.77;;;8.20;;
66585;SDS011;53444;45.822;16.092;2023-02-01T13:45:44;14.98;;;7.10;;
66585;SDS011;53444;45.822;16.092;2023-02-01T13:48:21;18.05;;;8.90;;
66585;SDS011;53444;45.822;16.092;2023-02-01T13:50:52;13.15;;;6.30;;
66585;SDS011;53444;45.822;16.092;2023-02-01T13:53:22;15.82;;;6.43;;
66585;SDS011;53444;45.822;16.092;2023-02-01T13:55:56;11.70;;;5.55;;
66585;SDS011;53444;45.822;16.092;2023-02-01T13:58:29;14.98;;;7.53;;
66585;SDS011;53444;45.822;16.092;2023-02-01T14:03:59;12.75;;;7.07;;
66585;SDS011;53444;45.822;16.092;2023-02-01T14:06:38;16.58;;;6.95;;
66585;SDS011;53444;45.822;16.092;2023-02-01T14:09:13;17.60;;;6.82;;
66585;SDS011;53444;45.822;16.092;2023-02-01T14:11:45;17.67;;;7.45;;
66585;SDS011;53444;45.822;16.092;2023-02-01T14:14:37;14.90;;;7.05;;
66585;SDS011;53444;45.822;16.092;2023-02-01T14:20:08;18.00;;;7.50;;
66585;SDS011;53444;45.822;16.092;2023-02-01T14:23:04;24.23;;;9.60;;
66585;SDS011;53444;45.822;16.092;2023-02-01T14:25:44;26.73;;;11.23;;
66585;SDS011;53444;45.822;16.092;2023-02-01T14:28:21;20.80;;;10.48;;
66585;SDS011;53444;45.822;16.092;2023-02-01T14:30:51;19.85;;;9.80;;
66585;SDS011;53444;45.822;16.092;2023-02-01T14:33:20;24.77;;;11.73;;
66585;SDS011;53444;45.822;16.092;2023-02-01T14:36:02;24.15;;;11.85;;
66585;SDS011;53444;45.822;16.092;2023-02-01T14:38:33;16.20;;;8.00;;
66585;SDS011;53444;45.822;16.092;2023-02-01T14:41:24;20.48;;;9.20;;
66585;SDS011;53444;45.822;16.092;2023-02-01T14:50:13;20.70;;;10.02;;
66585;SDS011;53444;45.822;16.092;2023-02-01T14:52:49;29.77;;;14.70;;
66585;SDS011;53444;45.822;16.092;2023-02-01T14:55:27;19.63;;;9.70;;
66585;SDS011;53444;45.822;16.092;2023-02-01T14:57:57;31.10;;;14.60;;
66585;SDS011;53444;45.822;16.092;2023-02-01T15:00:26;21.52;;;10.35;;
66585;SDS011;53444;45.822;16.092;2023-02-01T15:02:56;18.80;;;9.30;;
66585;SDS011;53444;45.822;16.092;2023-02-01T15:05:43;19.80;;;9.57;;
66585;SDS011;53444;45.822;16.092;2023-02-01T15:08:13;15.07;;;8.40;;
66585;SDS011;53444;45.822;16.092;2023-02-01T15:10:45;27.92;;;11.85;;